Aviation Digital Data Service (ADDS)

Output produced by METARs form (0343 UTC 23 November 2017)
found at http://www.aviationweather.gov/adds/metars/
 
GLRB 230100Z 00000KT 7000 BKN011 FEW022CB 25/24 Q1012 RMK CB-NE/SW,BRVC
TAF GLRB 221600Z 2218/2324 24010KT 8000 RA/TSRA SCT003 BKN014 FEW024CB 
     TEMPO 2219/2223 32010KT 9000 
     BECMG 2300/2302 34010KT 9999 BKN017 FEW027CB